Terminal Aerodrome Forecast
Issued by NWS North Platte, NE

Home | Current Version | Previous Version | Text Only | Print | Product List | Glossary Off
Versions: 1 2 3 4 5 6 7 8 9 10 11 12 13 14 15 16 17 18 19 20 21 22 23 24 25 26

844
FTUS43 KLBF 260958 AAB
TAFVTN
TAF AMD
KVTN 260958Z 2610/2706 15007KT P6SM OVC005
     FM261200 16005KT 4SM BR OVC004
      TEMPO 2612/2615 1SM BR
     FM261500 16006KT 5SM BR OVC006
     FM261700 14005KT P6SM BKN050
     FM262000 04005KT P6SM BKN100
     FM262300 03008KT P6SM BKN080=

USA.gov is the U.S. government's official web portal to all federal, state and local government web resources and services.